sensor_id;sensor_type;location;lat;lon;timestamp;temperature;humidity
18153;DHT22;9202;51.578;7.734;2022-12-29T00:01:24;10.60;99.90
18153;DHT22;9202;51.578;7.734;2022-12-29T00:03:27;10.60;99.90
18153;DHT22;9202;51.578;7.734;2022-12-29T00:05:30;10.70;99.90
18153;DHT22;9202;51.578;7.734;2022-12-29T00:07:33;10.70;99.90
18153;DHT22;9202;51.578;7.734;2022-12-29T00:09:37;10.80;99.90
18153;DHT22;9202;51.578;7.734;2022-12-29T00:11:39;10.80;99.90
18153;DHT22;9202;51.578;7.734;2022-12-29T00:13:43;10.80;99.90
18153;DHT22;9202;51.578;7.734;2022-12-29T00:16:04;10.80;99.90
18153;DHT22;9202;51.578;7.734;2022-12-29T00:18:11;10.80;99.90
18153;DHT22;9202;51.578;7.734;2022-12-29T00:20:14;10.80;99.90
18153;DHT22;9202;51.578;7.734;2022-12-29T00:22:35;10.90;99.90
18153;DHT22;9202;51.578;7.734;2022-12-29T00:24:58;11.00;99.90
18153;DHT22;9202;51.578;7.734;2022-12-29T00:27:20;11.00;99.90
18153;DHT22;9202;51.578;7.734;2022-12-29T00:29:43;11.10;99.90
18153;DHT22;9202;51.578;7.734;2022-12-29T00:32:07;11.10;99.90
18153;DHT22;9202;51.578;7.734;2022-12-29T00:34:29;11.00;99.90
18153;DHT22;9202;51.578;7.734;2022-12-29T00:36:51;11.10;99.90
18153;DHT22;9202;51.578;7.734;2022-12-29T00:38:56;11.00;99.90
18153;DHT22;9202;51.578;7.734;2022-12-29T00:41:19;11.10;99.90
18153;DHT22;9202;51.578;7.734;2022-12-29T00:43:40;11.10;99.90
18153;DHT22;9202;51.578;7.734;2022-12-29T00:46:02;11.20;99.90
18153;DHT22;9202;51.578;7.734;2022-12-29T00:48:05;11.20;99.90
18153;DHT22;9202;51.578;7.734;2022-12-29T00:50:08;11.30;99.90
18153;DHT22;9202;51.578;7.734;2022-12-29T00:52:11;11.30;99.90
18153;DHT22;9202;51.578;7.734;2022-12-29T00:54:15;11.30;99.90
18153;DHT22;9202;51.578;7.734;2022-12-29T00:56:20;11.40;99.90
18153;DHT22;9202;51.578;7.734;2022-12-29T00:58:22;11.40;99.90
18153;DHT22;9202;51.578;7.734;2022-12-29T01:00:25;11.40;99.90
18153;DHT22;9202;51.578;7.734;2022-12-29T01:02:28;11.40;99.90
18153;DHT22;9202;51.578;7.734;2022-12-29T01:04:31;11.40;99.90
18153;DHT22;9202;51.578;7.734;2022-12-29T01:06:35;11.40;99.90
18153;DHT22;9202;51.578;7.734;2022-12-29T01:08:38;11.40;99.90
18153;DHT22;9202;51.578;7.734;2022-12-29T01:10:41;11.40;99.90
18153;DHT22;9202;51.578;7.734;2022-12-29T01:12:43;11.30;99.90
18153;DHT22;9202;51.578;7.734;2022-12-29T01:14:47;11.30;99.90
18153;DHT22;9202;51.578;7.734;2022-12-29T01:16:49;11.30;99.90
18153;DHT22;9202;51.578;7.734;2022-12-29T01:18:52;11.30;99.90
18153;DHT22;9202;51.578;7.734;2022-12-29T01:20:59;11.20;99.90
18153;DHT22;9202;51.578;7.734;2022-12-29T01:23:03;11.30;99.90
18153;DHT22;9202;51.578;7.734;2022-12-29T01:25:06;11.30;99.90
18153;DHT22;9202;51.578;7.734;2022-12-29T01:27:09;11.20;99.90
18153;DHT22;9202;51.578;7.734;2022-12-29T01:29:12;11.30;99.90
18153;DHT22;9202;51.578;7.734;2022-12-29T01:31:16;11.20;99.90
18153;DHT22;9202;51.578;7.734;2022-12-29T01:33:20;11.20;99.90
18153;DHT22;9202;51.578;7.734;2022-12-29T01:35:23;11.30;99.90
18153;DHT22;9202;51.578;7.734;2022-12-29T01:37:27;11.30;99.90
18153;DHT22;9202;51.578;7.734;2022-12-29T01:39:29;11.30;99.90
18153;DHT22;9202;51.578;7.734;2022-12-29T01:41:32;11.30;99.90
18153;DHT22;9202;51.578;7.734;2022-12-29T01:43:40;11.30;99.90
18153;DHT22;9202;51.578;7.734;2022-12-29T01:45:45;11.30;99.90
18153;DHT22;9202;51.578;7.734;2022-12-29T01:47:49;11.30;99.90
18153;DHT22;9202;51.578;7.734;2022-12-29T01:49:53;11.30;99.90
18153;DHT22;9202;51.578;7.734;2022-12-29T01:51:57;11.30;99.90
18153;DHT22;9202;51.578;7.734;2022-12-29T01:54:02;11.30;99.90
18153;DHT22;9202;51.578;7.734;2022-12-29T01:56:07;11.30;99.90
18153;DHT22;9202;51.578;7.734;2022-12-29T01:58:11;11.30;99.90
18153;DHT22;9202;51.578;7.734;2022-12-29T02:00:15;11.30;99.90
18153;DHT22;9202;51.578;7.734;2022-12-29T02:02:21;11.30;99.90
18153;DHT22;9202;51.578;7.734;2022-12-29T02:04:24;11.30;99.90
18153;DHT22;9202;51.578;7.734;2022-12-29T02:06:28;11.30;99.90
18153;DHT22;9202;51.578;7.734;2022-12-29T02:08:31;11.30;99.90
18153;DHT22;9202;51.578;7.734;2022-12-29T02:10:34;11.40;99.90
18153;DHT22;9202;51.578;7.734;2022-12-29T02:12:38;11.40;99.90
18153;DHT22;9202;51.578;7.734;2022-12-29T02:14:41;11.40;99.90
18153;DHT22;9202;51.578;7.734;2022-12-29T02:16:49;11.40;99.90
18153;DHT22;9202;51.578;7.734;2022-12-29T02:18:54;11.40;99.90
18153;DHT22;9202;51.578;7.734;2022-12-29T02:21:13;11.50;99.90
18153;DHT22;9202;51.578;7.734;2022-12-29T02:23:30;11.50;99.90
18153;DHT22;9202;51.578;7.734;2022-12-29T02:25:44;11.50;99.90
18153;DHT22;9202;51.578;7.734;2022-12-29T02:27:53;11.50;99.90
18153;DHT22;9202;51.578;7.734;2022-12-29T02:30:06;11.50;99.90
18153;DHT22;9202;51.578;7.734;2022-12-29T02:32:12;11.50;99.90
18153;DHT22;9202;51.578;7.734;2022-12-29T02:34:18;11.60;99.90
18153;DHT22;9202;51.578;7.734;2022-12-29T02:36:23;11.50;99.90
18153;DHT22;9202;51.578;7.734;2022-12-29T02:38:31;11.50;99.90
18153;DHT22;9202;51.578;7.734;2022-12-29T02:40:37;11.60;99.90
18153;DHT22;9202;51.578;7.734;2022-12-29T02:42:40;11.70;99.90
18153;DHT22;9202;51.578;7.734;2022-12-29T02:44:47;11.60;99.90
18153;DHT22;9202;51.578;7.734;2022-12-29T02:46:51;11.60;99.90
18153;DHT22;9202;51.578;7.734;2022-12-29T02:48:57;11.70;99.90
18153;DHT22;9202;51.578;7.734;2022-12-29T02:51:02;11.70;99.90
18153;DHT22;9202;51.578;7.734;2022-12-29T02:53:06;11.80;99.90
18153;DHT22;9202;51.578;7.734;2022-12-29T02:55:10;11.80;99.90
18153;DHT22;9202;51.578;7.734;2022-12-29T02:57:14;11.70;99.90
18153;DHT22;9202;51.578;7.734;2022-12-29T02:59:19;11.80;99.90
18153;DHT22;9202;51.578;7.734;2022-12-29T03:01:29;11.80;99.90
18153;DHT22;9202;51.578;7.734;2022-12-29T03:03:38;11.80;99.90
18153;DHT22;9202;51.578;7.734;2022-12-29T03:05:49;11.80;99.90
18153;DHT22;9202;51.578;7.734;2022-12-29T03:07:56;11.70;99.90
18153;DHT22;9202;51.578;7.734;2022-12-29T03:10:01;11.70;99.90
18153;DHT22;9202;51.578;7.734;2022-12-29T03:12:07;11.70;99.90
18153;DHT22;9202;51.578;7.734;2022-12-29T03:14:14;11.70;99.90
18153;DHT22;9202;51.578;7.734;2022-12-29T03:16:38;11.80;99.90
18153;DHT22;9202;51.578;7.734;2022-12-29T03:18:45;11.80;99.90
18153;DHT22;9202;51.578;7.734;2022-12-29T03:20:51;11.80;99.90
18153;DHT22;9202;51.578;7.734;2022-12-29T03:22:56;11.80;99.90
18153;DHT22;9202;51.578;7.734;2022-12-29T03:24:59;11.80;99.90
18153;DHT22;9202;51.578;7.734;2022-12-29T03:27:04;11.80;99.90
18153;DHT22;9202;51.578;7.734;2022-12-29T03:29:10;11.70;99.90
18153;DHT22;9202;51.578;7.734;2022-12-29T03:31:13;11.80;99.90
18153;DHT22;9202;51.578;7.734;2022-12-29T03:33:18;11.80;99.90
18153;DHT22;9202;51.578;7.734;2022-12-29T03:35:23;11.80;99.90
18153;DHT22;9202;51.578;7.734;2022-12-29T03:37:29;11.80;99.90
18153;DHT22;9202;51.578;7.734;2022-12-29T03:39:33;11.80;99.90
18153;DHT22;9202;51.578;7.734;2022-12-29T03:41:37;11.90;99.90
18153;DHT22;9202;51.578;7.734;2022-12-29T03:43:42;12.00;99.90
18153;DHT22;9202;51.578;7.734;2022-12-29T03:45:45;11.90;99.90
18153;DHT22;9202;51.578;7.734;2022-12-29T03:47:48;11.90;99.90
18153;DHT22;9202;51.578;7.734;2022-12-29T03:49:51;11.90;99.90
18153;DHT22;9202;51.578;7.734;2022-12-29T03:51:54;11.80;99.90
18153;DHT22;9202;51.578;7.734;2022-12-29T03:53:58;11.80;99.90
18153;DHT22;9202;51.578;7.734;2022-12-29T03:56:02;11.70;99.90
18153;DHT22;9202;51.578;7.734;2022-12-29T03:58:05;11.60;99.90
18153;DHT22;9202;51.578;7.734;2022-12-29T04:00:11;11.50;99.90
18153;DHT22;9202;51.578;7.734;2022-12-29T04:02:15;11.50;99.90
18153;DHT22;9202;51.578;7.734;2022-12-29T04:04:20;11.50;99.90
18153;DHT22;9202;51.578;7.734;2022-12-29T04:06:24;11.40;99.90
18153;DHT22;9202;51.578;7.734;2022-12-29T04:08:28;11.40;99.90
18153;DHT22;9202;51.578;7.734;2022-12-29T04:10:31;11.50;99.90
18153;DHT22;9202;51.578;7.734;2022-12-29T04:12:35;11.40;99.90
18153;DHT22;9202;51.578;7.734;2022-12-29T04:14:38;11.40;99.90
18153;DHT22;9202;51.578;7.734;2022-12-29T04:16:41;11.40;99.90
18153;DHT22;9202;51.578;7.734;2022-12-29T04:18:44;11.40;99.90
18153;DHT22;9202;51.578;7.734;2022-12-29T04:20:47;11.30;99.90
18153;DHT22;9202;51.578;7.734;2022-12-29T04:23:02;11.30;99.90
18153;DHT22;9202;51.578;7.734;2022-12-29T04:25:07;11.30;99.90
18153;DHT22;9202;51.578;7.734;2022-12-29T04:27:10;11.30;99.90
18153;DHT22;9202;51.578;7.734;2022-12-29T04:29:15;11.30;99.90
18153;DHT22;9202;51.578;7.734;2022-12-29T04:31:19;11.30;99.90
18153;DHT22;9202;51.578;7.734;2022-12-29T04:33:24;11.30;99.90
18153;DHT22;9202;51.578;7.734;2022-12-29T04:35:28;11.30;99.90
18153;DHT22;9202;51.578;7.734;2022-12-29T04:37:31;10.70;99.90
18153;DHT22;9202;51.578;7.734;2022-12-29T04:39:33;11.20;99.90
18153;DHT22;9202;51.578;7.734;2022-12-29T04:41:37;11.20;99.90
18153;DHT22;9202;51.578;7.734;2022-12-29T04:43:42;11.30;99.90
18153;DHT22;9202;51.578;7.734;2022-12-29T04:45:46;11.30;99.90
18153;DHT22;9202;51.578;7.734;2022-12-29T04:47:50;11.30;99.90
18153;DHT22;9202;51.578;7.734;2022-12-29T04:49:55;11.40;99.90
18153;DHT22;9202;51.578;7.734;2022-12-29T04:51:59;11.40;99.90
18153;DHT22;9202;51.578;7.734;2022-12-29T04:54:03;11.50;99.90
18153;DHT22;9202;51.578;7.734;2022-12-29T04:56:06;11.50;99.90
18153;DHT22;9202;51.578;7.734;2022-12-29T04:58:09;11.50;99.90
18153;DHT22;9202;51.578;7.734;2022-12-29T05:00:13;11.60;99.90
18153;DHT22;9202;51.578;7.734;2022-12-29T05:02:25;11.70;99.90
18153;DHT22;9202;51.578;7.734;2022-12-29T05:04:31;11.70;99.90
18153;DHT22;9202;51.578;7.734;2022-12-29T05:06:33;11.80;99.90
18153;DHT22;9202;51.578;7.734;2022-12-29T05:08:36;11.80;99.90
18153;DHT22;9202;51.578;7.734;2022-12-29T05:10:39;11.80;99.90
18153;DHT22;9202;51.578;7.734;2022-12-29T05:12:44;11.90;99.90
18153;DHT22;9202;51.578;7.734;2022-12-29T05:14:47;11.90;99.90
18153;DHT22;9202;51.578;7.734;2022-12-29T05:16:50;11.90;99.90
18153;DHT22;9202;51.578;7.734;2022-12-29T05:18:53;12.00;99.90
18153;DHT22;9202;51.578;7.734;2022-12-29T05:20:55;12.00;99.90
18153;DHT22;9202;51.578;7.734;2022-12-29T05:22:58;12.10;99.90
18153;DHT22;9202;51.578;7.734;2022-12-29T05:25:02;12.00;99.90
18153;DHT22;9202;51.578;7.734;2022-12-29T05:27:07;12.10;99.90
18153;DHT22;9202;51.578;7.734;2022-12-29T05:29:11;12.00;99.90
18153;DHT22;9202;51.578;7.734;2022-12-29T05:31:14;12.00;99.90
18153;DHT22;9202;51.578;7.734;2022-12-29T05:33:18;11.90;99.90
18153;DHT22;9202;51.578;7.734;2022-12-29T05:35:22;11.90;99.90
18153;DHT22;9202;51.578;7.734;2022-12-29T05:37:25;11.90;99.90
18153;DHT22;9202;51.578;7.734;2022-12-29T05:39:27;12.00;99.90
18153;DHT22;9202;51.578;7.734;2022-12-29T05:41:32;12.00;99.90
18153;DHT22;9202;51.578;7.734;2022-12-29T05:43:37;12.00;99.90
18153;DHT22;9202;51.578;7.734;2022-12-29T05:45:41;12.00;99.90
18153;DHT22;9202;51.578;7.734;2022-12-29T05:47:46;12.10;99.90
18153;DHT22;9202;51.578;7.734;2022-12-29T05:49:50;12.10;99.90
18153;DHT22;9202;51.578;7.734;2022-12-29T05:51:55;12.10;99.90
18153;DHT22;9202;51.578;7.734;2022-12-29T05:53:58;12.10;99.90
18153;DHT22;9202;51.578;7.734;2022-12-29T05:56:02;12.20;99.90
18153;DHT22;9202;51.578;7.734;2022-12-29T05:58:06;12.20;99.90
18153;DHT22;9202;51.578;7.734;2022-12-29T06:00:11;12.20;99.90
18153;DHT22;9202;51.578;7.734;2022-12-29T06:02:15;12.20;99.90
18153;DHT22;9202;51.578;7.734;2022-12-29T06:04:18;12.30;99.90
18153;DHT22;9202;51.578;7.734;2022-12-29T06:06:22;12.30;99.90
18153;DHT22;9202;51.578;7.734;2022-12-29T06:08:24;12.30;99.90
18153;DHT22;9202;51.578;7.734;2022-12-29T06:10:27;12.30;99.90
18153;DHT22;9202;51.578;7.734;2022-12-29T06:12:32;12.40;99.90
18153;DHT22;9202;51.578;7.734;2022-12-29T06:14:34;12.40;99.90
18153;DHT22;9202;51.578;7.734;2022-12-29T06:16:38;12.40;99.90
18153;DHT22;9202;51.578;7.734;2022-12-29T06:18:42;12.40;99.90
18153;DHT22;9202;51.578;7.734;2022-12-29T06:20:45;12.40;99.90
18153;DHT22;9202;51.578;7.734;2022-12-29T06:22:49;12.40;99.90
18153;DHT22;9202;51.578;7.734;2022-12-29T06:24:52;12.40;99.90
18153;DHT22;9202;51.578;7.734;2022-12-29T06:26:54;12.30;99.90
18153;DHT22;9202;51.578;7.734;2022-12-29T06:28:57;12.40;99.90
18153;DHT22;9202;51.578;7.734;2022-12-29T06:31:00;12.30;99.90
18153;DHT22;9202;51.578;7.734;2022-12-29T06:33:04;12.30;99.90
18153;DHT22;9202;51.578;7.734;2022-12-29T06:35:09;12.30;99.90
18153;DHT22;9202;51.578;7.734;2022-12-29T06:37:13;12.40;99.90
18153;DHT22;9202;51.578;7.734;2022-12-29T06:39:16;12.30;99.90
18153;DHT22;9202;51.578;7.734;2022-12-29T06:41:21;12.40;99.90
18153;DHT22;9202;51.578;7.734;2022-12-29T06:43:28;12.40;99.90
18153;DHT22;9202;51.578;7.734;2022-12-29T06:45:34;12.30;99.90
18153;DHT22;9202;51.578;7.734;2022-12-29T06:47:36;12.30;99.90
18153;DHT22;9202;51.578;7.734;2022-12-29T06:49:39;12.30;99.90
18153;DHT22;9202;51.578;7.734;2022-12-29T06:51:41;12.30;99.90
18153;DHT22;9202;51.578;7.734;2022-12-29T06:53:44;12.30;99.90
18153;DHT22;9202;51.578;7.734;2022-12-29T06:55:46;12.30;99.90
18153;DHT22;9202;51.578;7.734;2022-12-29T06:57:49;12.30;99.90
18153;DHT22;9202;51.578;7.734;2022-12-29T06:59:51;12.30;99.90
18153;DHT22;9202;51.578;7.734;2022-12-29T07:01:56;12.30;99.90
18153;DHT22;9202;51.578;7.734;2022-12-29T07:03:58;12.30;99.90
18153;DHT22;9202;51.578;7.734;2022-12-29T07:06:01;12.30;99.90
18153;DHT22;9202;51.578;7.734;2022-12-29T07:08:04;12.30;99.90
18153;DHT22;9202;51.578;7.734;2022-12-29T07:10:07;12.30;99.90
18153;DHT22;9202;51.578;7.734;2022-12-29T07:12:10;12.30;99.90
18153;DHT22;9202;51.578;7.734;2022-12-29T07:14:12;12.20;99.90
18153;DHT22;9202;51.578;7.734;2022-12-29T07:16:15;12.20;99.90
18153;DHT22;9202;51.578;7.734;2022-12-29T07:18:18;12.20;99.90
18153;DHT22;9202;51.578;7.734;2022-12-29T07:20:22;12.20;99.90
18153;DHT22;9202;51.578;7.734;2022-12-29T07:22:28;12.20;99.90
18153;DHT22;9202;51.578;7.734;2022-12-29T07:24:31;12.20;99.90
18153;DHT22;9202;51.578;7.734;2022-12-29T07:26:36;12.20;99.90
18153;DHT22;9202;51.578;7.734;2022-12-29T07:28:38;12.20;99.90
18153;DHT22;9202;51.578;7.734;2022-12-29T07:30:42;12.20;99.90
18153;DHT22;9202;51.578;7.734;2022-12-29T07:32:45;12.20;99.90
18153;DHT22;9202;51.578;7.734;2022-12-29T07:34:49;12.20;99.90
18153;DHT22;9202;51.578;7.734;2022-12-29T07:36:51;12.10;99.90
18153;DHT22;9202;51.578;7.734;2022-12-29T07:38:54;12.10;99.90
18153;DHT22;9202;51.578;7.734;2022-12-29T07:40:57;12.10;99.90
18153;DHT22;9202;51.578;7.734;2022-12-29T07:43:00;12.10;99.90
18153;DHT22;9202;51.578;7.734;2022-12-29T07:45:06;12.10;99.90
18153;DHT22;9202;51.578;7.734;2022-12-29T07:47:11;12.10;99.90
18153;DHT22;9202;51.578;7.734;2022-12-29T07:49:14;12.10;99.90
18153;DHT22;9202;51.578;7.734;2022-12-29T07:51:16;12.10;99.90
18153;DHT22;9202;51.578;7.734;2022-12-29T07:53:19;12.10;99.90
18153;DHT22;9202;51.578;7.734;2022-12-29T07:55:21;12.10;99.90
18153;DHT22;9202;51.578;7.734;2022-12-29T07:57:25;12.00;99.90
18153;DHT22;9202;51.578;7.734;2022-12-29T07:59:29;12.00;99.90
18153;DHT22;9202;51.578;7.734;2022-12-29T08:01:32;12.00;99.90
18153;DHT22;9202;51.578;7.734;2022-12-29T08:03:35;12.00;99.90
18153;DHT22;9202;51.578;7.734;2022-12-29T08:05:38;12.00;99.90
18153;DHT22;9202;51.578;7.734;2022-12-29T08:07:42;11.90;99.90
18153;DHT22;9202;51.578;7.734;2022-12-29T08:09:45;12.00;99.90
18153;DHT22;9202;51.578;7.734;2022-12-29T08:11:49;11.90;99.90
18153;DHT22;9202;51.578;7.734;2022-12-29T08:13:52;11.90;99.90
18153;DHT22;9202;51.578;7.734;2022-12-29T08:15:54;11.80;99.90
18153;DHT22;9202;51.578;7.734;2022-12-29T08:17:57;11.80;99.90
18153;DHT22;9202;51.578;7.734;2022-12-29T08:19:59;11.80;99.90
18153;DHT22;9202;51.578;7.734;2022-12-29T08:22:02;11.80;99.90
18153;DHT22;9202;51.578;7.734;2022-12-29T08:24:05;11.80;99.90
18153;DHT22;9202;51.578;7.734;2022-12-29T08:26:07;11.90;99.90
18153;DHT22;9202;51.578;7.734;2022-12-29T08:28:10;11.90;99.90
18153;DHT22;9202;51.578;7.734;2022-12-29T08:30:13;11.90;99.90
18153;DHT22;9202;51.578;7.734;2022-12-29T08:32:16;11.90;99.90
18153;DHT22;9202;51.578;7.734;2022-12-29T08:34:18;11.80;99.90
18153;DHT22;9202;51.578;7.734;2022-12-29T08:36:21;11.80;99.90
18153;DHT22;9202;51.578;7.734;2022-12-29T08:38:24;11.80;99.90
18153;DHT22;9202;51.578;7.734;2022-12-29T08:40:27;11.80;99.90
18153;DHT22;9202;51.578;7.734;2022-12-29T08:42:29;11.80;99.90
18153;DHT22;9202;51.578;7.734;2022-12-29T08:44:32;11.80;99.90
18153;DHT22;9202;51.578;7.734;2022-12-29T08:46:35;11.80;99.90
18153;DHT22;9202;51.578;7.734;2022-12-29T08:48:38;11.80;99.90
18153;DHT22;9202;51.578;7.734;2022-12-29T08:50:42;11.80;99.90
18153;DHT22;9202;51.578;7.734;2022-12-29T08:52:45;11.80;99.90
18153;DHT22;9202;51.578;7.734;2022-12-29T08:54:47;11.70;99.90
18153;DHT22;9202;51.578;7.734;2022-12-29T08:56:50;11.80;99.90
18153;DHT22;9202;51.578;7.734;2022-12-29T08:58:53;11.80;99.90
18153;DHT22;9202;51.578;7.734;2022-12-29T09:00:57;11.80;99.90
18153;DHT22;9202;51.578;7.734;2022-12-29T09:03:00;11.70;99.90
18153;DHT22;9202;51.578;7.734;2022-12-29T09:05:03;11.70;99.90
18153;DHT22;9202;51.578;7.734;2022-12-29T09:07:06;11.80;99.90
18153;DHT22;9202;51.578;7.734;2022-12-29T09:09:08;11.80;99.90
18153;DHT22;9202;51.578;7.734;2022-12-29T09:11:13;11.80;99.90
18153;DHT22;9202;51.578;7.734;2022-12-29T09:13:17;11.90;99.90
18153;DHT22;9202;51.578;7.734;2022-12-29T09:15:19;11.90;99.90
18153;DHT22;9202;51.578;7.734;2022-12-29T09:17:22;11.90;99.90
18153;DHT22;9202;51.578;7.734;2022-12-29T09:19:43;11.90;99.90
18153;DHT22;9202;51.578;7.734;2022-12-29T09:21:46;11.90;99.90
18153;DHT22;9202;51.578;7.734;2022-12-29T09:23:49;11.90;99.90
18153;DHT22;9202;51.578;7.734;2022-12-29T09:25:51;11.80;99.90
18153;DHT22;9202;51.578;7.734;2022-12-29T09:27:54;11.80;99.90
18153;DHT22;9202;51.578;7.734;2022-12-29T09:29:56;11.60;99.90
18153;DHT22;9202;51.578;7.734;2022-12-29T09:31:59;11.50;99.90
18153;DHT22;9202;51.578;7.734;2022-12-29T09:34:02;11.50;99.90
18153;DHT22;9202;51.578;7.734;2022-12-29T09:36:05;11.30;99.90
18153;DHT22;9202;51.578;7.734;2022-12-29T09:38:07;11.30;99.90
18153;DHT22;9202;51.578;7.734;2022-12-29T09:40:15;11.20;99.90
18153;DHT22;9202;51.578;7.734;2022-12-29T09:42:20;11.20;99.90
18153;DHT22;9202;51.578;7.734;2022-12-29T09:44:26;11.20;99.90
18153;DHT22;9202;51.578;7.734;2022-12-29T09:46:28;11.10;99.90
18153;DHT22;9202;51.578;7.734;2022-12-29T09:48:33;11.10;99.90
18153;DHT22;9202;51.578;7.734;2022-12-29T09:50:37;11.20;99.90
18153;DHT22;9202;51.578;7.734;2022-12-29T09:52:40;11.20;99.90
18153;DHT22;9202;51.578;7.734;2022-12-29T09:54:47;11.30;99.90
18153;DHT22;9202;51.578;7.734;2022-12-29T09:56:52;11.40;99.90
18153;DHT22;9202;51.578;7.734;2022-12-29T09:58:56;11.50;99.90
18153;DHT22;9202;51.578;7.734;2022-12-29T10:01:01;11.70;99.90
18153;DHT22;9202;51.578;7.734;2022-12-29T10:03:06;11.70;99.90
18153;DHT22;9202;51.578;7.734;2022-12-29T10:05:14;11.70;99.90
18153;DHT22;9202;51.578;7.734;2022-12-29T10:07:21;11.60;99.90
18153;DHT22;9202;51.578;7.734;2022-12-29T10:09:25;11.60;99.90
18153;DHT22;9202;51.578;7.734;2022-12-29T10:11:32;11.60;99.90
18153;DHT22;9202;51.578;7.734;2022-12-29T10:13:38;11.60;99.90
18153;DHT22;9202;51.578;7.734;2022-12-29T10:15:44;11.80;99.90
18153;DHT22;9202;51.578;7.734;2022-12-29T10:17:48;11.80;99.90
18153;DHT22;9202;51.578;7.734;2022-12-29T10:19:55;11.80;99.90
18153;DHT22;9202;51.578;7.734;2022-12-29T10:22:00;11.70;99.90
18153;DHT22;9202;51.578;7.734;2022-12-29T10:24:06;11.70;99.90
18153;DHT22;9202;51.578;7.734;2022-12-29T10:26:10;11.70;99.90
18153;DHT22;9202;51.578;7.734;2022-12-29T10:28:17;11.70;99.90
18153;DHT22;9202;51.578;7.734;2022-12-29T10:30:20;11.70;99.90
18153;DHT22;9202;51.578;7.734;2022-12-29T10:32:25;11.90;99.90
18153;DHT22;9202;51.578;7.734;2022-12-29T10:34:29;12.00;99.90
18153;DHT22;9202;51.578;7.734;2022-12-29T10:36:35;12.10;99.90
18153;DHT22;9202;51.578;7.734;2022-12-29T10:38:40;12.10;99.90
18153;DHT22;9202;51.578;7.734;2022-12-29T10:40:45;12.30;99.90
18153;DHT22;9202;51.578;7.734;2022-12-29T10:42:49;12.40;99.90
18153;DHT22;9202;51.578;7.734;2022-12-29T10:44:53;12.60;99.90
18153;DHT22;9202;51.578;7.734;2022-12-29T10:46:58;12.70;99.90
18153;DHT22;9202;51.578;7.734;2022-12-29T10:49:02;12.60;99.90
18153;DHT22;9202;51.578;7.734;2022-12-29T10:51:05;12.50;99.90
18153;DHT22;9202;51.578;7.734;2022-12-29T10:53:08;12.30;99.90
18153;DHT22;9202;51.578;7.734;2022-12-29T10:55:12;12.20;99.90
18153;DHT22;9202;51.578;7.734;2022-12-29T10:57:18;12.10;99.90
18153;DHT22;9202;51.578;7.734;2022-12-29T10:59:21;12.20;99.90
18153;DHT22;9202;51.578;7.734;2022-12-29T11:01:24;12.20;99.90
18153;DHT22;9202;51.578;7.734;2022-12-29T11:03:49;12.20;99.90
18153;DHT22;9202;51.578;7.734;2022-12-29T11:05:54;12.20;99.90
18153;DHT22;9202;51.578;7.734;2022-12-29T11:07:58;12.20;99.90
18153;DHT22;9202;51.578;7.734;2022-12-29T11:10:18;12.20;99.90
18153;DHT22;9202;51.578;7.734;2022-12-29T11:12:22;12.20;99.90
18153;DHT22;9202;51.578;7.734;2022-12-29T11:14:27;12.20;99.90
18153;DHT22;9202;51.578;7.734;2022-12-29T11:16:30;12.10;99.90
18153;DHT22;9202;51.578;7.734;2022-12-29T11:18:35;12.10;99.90
18153;DHT22;9202;51.578;7.734;2022-12-29T11:20:38;12.00;99.90
18153;DHT22;9202;51.578;7.734;2022-12-29T11:22:44;12.10;99.90
18153;DHT22;9202;51.578;7.734;2022-12-29T11:24:47;12.00;99.90
18153;DHT22;9202;51.578;7.734;2022-12-29T11:26:54;11.90;99.90
18153;DHT22;9202;51.578;7.734;2022-12-29T11:29:23;11.90;99.90
18153;DHT22;9202;51.578;7.734;2022-12-29T11:31:26;11.90;99.90
18153;DHT22;9202;51.578;7.734;2022-12-29T11:33:28;11.90;99.90
18153;DHT22;9202;51.578;7.734;2022-12-29T11:35:32;11.90;99.90
18153;DHT22;9202;51.578;7.734;2022-12-29T11:37:37;11.90;99.90
18153;DHT22;9202;51.578;7.734;2022-12-29T11:39:50;11.90;99.90
18153;DHT22;9202;51.578;7.734;2022-12-29T11:41:45;11.90;99.90
18153;DHT22;9202;51.578;7.734;2022-12-29T11:43:50;11.90;99.90
18153;DHT22;9202;51.578;7.734;2022-12-29T11:45:53;11.90;99.90
18153;DHT22;9202;51.578;7.734;2022-12-29T11:47:58;11.90;99.90
18153;DHT22;9202;51.578;7.734;2022-12-29T11:50:04;11.90;99.90
18153;DHT22;9202;51.578;7.734;2022-12-29T11:52:07;11.90;99.90
18153;DHT22;9202;51.578;7.734;2022-12-29T11:54:13;11.80;99.90
18153;DHT22;9202;51.578;7.734;2022-12-29T11:56:16;11.90;99.90
18153;DHT22;9202;51.578;7.734;2022-12-29T11:58:20;11.80;99.90
18153;DHT22;9202;51.578;7.734;2022-12-29T12:00:23;11.80;99.90
18153;DHT22;9202;51.578;7.734;2022-12-29T12:02:35;11.80;99.90
18153;DHT22;9202;51.578;7.734;2022-12-29T12:04:40;11.80;99.90
18153;DHT22;9202;51.578;7.734;2022-12-29T12:06:45;11.80;99.90
18153;DHT22;9202;51.578;7.734;2022-12-29T12:08:51;11.80;99.90
18153;DHT22;9202;51.578;7.734;2022-12-29T12:10:55;11.80;99.90
18153;DHT22;9202;51.578;7.734;2022-12-29T12:13:03;11.80;99.90
18153;DHT22;9202;51.578;7.734;2022-12-29T12:15:08;11.80;99.90
18153;DHT22;9202;51.578;7.734;2022-12-29T12:17:16;11.80;99.90
18153;DHT22;9202;51.578;7.734;2022-12-29T12:19:24;11.80;99.90
18153;DHT22;9202;51.578;7.734;2022-12-29T12:21:27;11.80;99.90
18153;DHT22;9202;51.578;7.734;2022-12-29T12:23:32;11.80;99.90
18153;DHT22;9202;51.578;7.734;2022-12-29T12:25:37;11.80;99.90
18153;DHT22;9202;51.578;7.734;2022-12-29T12:27:42;11.80;99.90
18153;DHT22;9202;51.578;7.734;2022-12-29T12:29:46;11.80;99.90
18153;DHT22;9202;51.578;7.734;2022-12-29T12:31:51;11.80;99.90
18153;DHT22;9202;51.578;7.734;2022-12-29T12:33:55;11.90;99.90
18153;DHT22;9202;51.578;7.734;2022-12-29T12:36:11;11.80;99.90
18153;DHT22;9202;51.578;7.734;2022-12-29T12:38:10;11.80;99.90
18153;DHT22;9202;51.578;7.734;2022-12-29T12:42:39;11.70;99.90
18153;DHT22;9202;51.578;7.734;2022-12-29T12:44:45;11.80;99.90
18153;DHT22;9202;51.578;7.734;2022-12-29T12:46:55;11.80;99.90
18153;DHT22;9202;51.578;7.734;2022-12-29T12:49:13;11.80;99.90
18153;DHT22;9202;51.578;7.734;2022-12-29T12:51:18;11.80;99.90
18153;DHT22;9202;51.578;7.734;2022-12-29T12:53:31;11.80;99.90
18153;DHT22;9202;51.578;7.734;2022-12-29T12:55:37;11.70;99.90
18153;DHT22;9202;51.578;7.734;2022-12-29T12:57:44;11.70;99.90
18153;DHT22;9202;51.578;7.734;2022-12-29T12:59:51;11.70;99.90
18153;DHT22;9202;51.578;7.734;2022-12-29T13:01:55;11.70;99.90
18153;DHT22;9202;51.578;7.734;2022-12-29T13:06:23;11.70;99.90
18153;DHT22;9202;51.578;7.734;2022-12-29T13:10:49;11.70;99.90
18153;DHT22;9202;51.578;7.734;2022-12-29T13:12:59;11.60;99.90
18153;DHT22;9202;51.578;7.734;2022-12-29T13:15:02;11.60;99.90
18153;DHT22;9202;51.578;7.734;2022-12-29T13:17:07;11.60;99.90
18153;DHT22;9202;51.578;7.734;2022-12-29T13:19:10;11.60;99.90
18153;DHT22;9202;51.578;7.734;2022-12-29T13:21:16;11.60;99.90
18153;DHT22;9202;51.578;7.734;2022-12-29T13:23:20;11.50;99.90
18153;DHT22;9202;51.578;7.734;2022-12-29T13:25:27;11.60;99.90
18153;DHT22;9202;51.578;7.734;2022-12-29T13:27:31;11.60;99.90
18153;DHT22;9202;51.578;7.734;2022-12-29T13:29:39;11.50;99.90